createdAt,value
2019-02-16T00:00:43.246Z,12.53
2019-02-16T00:03:11.909Z,14.53
2019-02-16T00:05:40.641Z,9.77
2019-02-16T00:08:09.469Z,8.10
2019-02-16T00:10:38.168Z,13.07
2019-02-16T00:13:06.909Z,10.43
2019-02-16T00:15:35.641Z,10.07
2019-02-16T00:18:04.426Z,10.17
2019-02-16T00:20:33.141Z,8.03
2019-02-16T00:23:01.894Z,12.53
2019-02-16T00:25:30.618Z,13.73
2019-02-16T00:27:59.363Z,14.73
2019-02-16T00:30:28.097Z,10.10
2019-02-16T00:32:56.866Z,8.47
2019-02-16T00:35:25.662Z,9.97
2019-02-16T00:37:54.381Z,9.37
2019-02-16T00:40:23.398Z,9.80
2019-02-16T00:42:52.210Z,12.53
2019-02-16T00:45:20.937Z,11.23
2019-02-16T00:47:49.781Z,8.73
2019-02-16T00:50:18.570Z,9.30
2019-02-16T00:52:47.273Z,11.30
2019-02-16T00:55:16.083Z,12.47
2019-02-16T00:57:44.827Z,10.57
2019-02-16T01:00:16.485Z,7.47
2019-02-16T01:02:45.193Z,10.03
2019-02-16T01:05:14.025Z,9.43
2019-02-16T01:07:42.717Z,9.47
2019-02-16T01:10:14.486Z,8.20
2019-02-16T01:12:43.333Z,16.03
2019-02-16T01:15:12.033Z,7.00
2019-02-16T01:17:40.749Z,9.57
2019-02-16T01:20:11.466Z,8.70
2019-02-16T01:22:40.193Z,8.47
2019-02-16T01:25:08.886Z,8.17
2019-02-16T01:27:37.710Z,9.33
2019-02-16T01:30:09.265Z,9.17
2019-02-16T01:32:38.039Z,12.50
2019-02-16T01:35:07.676Z,8.73
2019-02-16T01:37:36.428Z,11.83
2019-02-16T01:40:07.392Z,8.40
2019-02-16T01:42:36.160Z,8.60
2019-02-16T01:45:05.784Z,8.13
2019-02-16T01:47:34.733Z,9.43
2019-02-16T01:50:03.569Z,9.03
2019-02-16T01:52:32.316Z,7.90
2019-02-16T01:55:01.151Z,11.87
2019-02-16T01:57:30.051Z,8.20
2019-02-16T01:59:58.843Z,7.50
2019-02-16T02:02:27.599Z,8.67
2019-02-16T02:04:56.385Z,8.60
2019-02-16T02:07:25.192Z,11.43
2019-02-16T02:09:53.999Z,10.83
2019-02-16T02:12:23.008Z,10.23
2019-02-16T02:14:51.799Z,11.10
2019-02-16T02:17:20.547Z,8.43
2019-02-16T02:19:49.327Z,9.43
2019-02-16T02:22:18.092Z,15.90
2019-02-16T02:24:47.050Z,13.93
2019-02-16T02:27:15.871Z,9.37
2019-02-16T02:29:44.716Z,9.53
2019-02-16T02:32:13.593Z,8.63
2019-02-16T02:34:42.433Z,8.43
2019-02-16T02:37:11.191Z,8.33
2019-02-16T02:39:40.158Z,7.77
2019-02-16T02:42:08.943Z,9.87
2019-02-16T02:44:37.795Z,10.03
2019-02-16T02:47:06.535Z,9.10
2019-02-16T02:49:35.320Z,10.30
2019-02-16T02:52:04.072Z,12.60
2019-02-16T02:54:32.819Z,16.13
2019-02-16T02:57:01.685Z,8.63
2019-02-16T02:59:30.533Z,11.40
2019-02-16T03:01:59.311Z,10.90
2019-02-16T03:04:28.163Z,10.50
2019-02-16T03:06:56.995Z,10.33
2019-02-16T03:09:25.768Z,12.73
2019-02-16T03:11:54.589Z,9.43
2019-02-16T03:14:23.428Z,12.37
2019-02-16T03:16:52.193Z,7.63
2019-02-16T03:19:20.966Z,11.77
2019-02-16T03:21:49.711Z,9.57
2019-02-16T03:24:18.467Z,10.93
2019-02-16T03:27:01.178Z,11.27
2019-02-16T03:29:50.440Z,12.93
2019-02-16T03:32:44.913Z,11.73
2019-02-16T03:35:49.948Z,9.40
2019-02-16T03:38:47.331Z,9.60
2019-02-16T03:41:16.084Z,9.53
2019-02-16T03:43:44.887Z,14.87
2019-02-16T03:46:16.487Z,9.60
2019-02-16T03:48:45.312Z,10.83
2019-02-16T03:51:14.139Z,9.63
2019-02-16T03:53:42.925Z,14.27
2019-02-16T03:56:11.666Z,9.03
2019-02-16T03:58:40.433Z,10.77
2019-02-16T04:01:09.237Z,11.40
2019-02-16T04:03:37.984Z,9.77
2019-02-16T04:06:06.746Z,10.83
2019-02-16T04:08:35.533Z,10.00
2019-02-16T04:11:04.369Z,12.50
2019-02-16T04:13:33.158Z,11.93
2019-02-16T04:16:01.931Z,9.67
2019-02-16T04:18:30.742Z,12.83
2019-02-16T04:20:59.487Z,14.30
2019-02-16T04:23:28.376Z,13.50
2019-02-16T04:25:57.205Z,13.73
2019-02-16T04:28:26.040Z,12.20
2019-02-16T04:30:54.817Z,10.67
2019-02-16T04:33:23.533Z,13.30
2019-02-16T04:35:52.237Z,10.43
2019-02-16T04:38:21.049Z,11.40
2019-02-16T04:40:49.782Z,10.70
2019-02-16T04:43:18.492Z,12.77
2019-02-16T04:45:47.263Z,11.57
2019-02-16T04:48:16.150Z,13.33
2019-02-16T04:50:44.943Z,10.53
2019-02-16T04:53:13.939Z,11.20
2019-02-16T04:55:42.651Z,15.30
2019-02-16T04:58:11.334Z,10.67
2019-02-16T05:00:40.237Z,11.33
2019-02-16T05:03:08.942Z,10.73
2019-02-16T05:05:37.626Z,9.73
2019-02-16T05:08:06.369Z,11.17
2019-02-16T05:10:35.086Z,12.87
2019-02-16T05:13:03.777Z,10.30
2019-02-16T05:15:32.553Z,8.93
2019-02-16T05:18:01.253Z,8.47
2019-02-16T05:20:29.965Z,9.40
2019-02-16T05:22:58.697Z,10.63
2019-02-16T05:25:27.481Z,8.17
2019-02-16T05:27:56.202Z,10.87
2019-02-16T05:30:24.955Z,11.60
2019-02-16T05:32:53.708Z,9.97
2019-02-16T05:35:22.441Z,9.00
2019-02-16T05:37:51.229Z,8.80
2019-02-16T05:40:20.041Z,8.57
2019-02-16T05:42:48.774Z,11.03
2019-02-16T05:45:17.610Z,10.47
2019-02-16T05:47:46.333Z,10.97
2019-02-16T05:50:15.111Z,8.70
2019-02-16T05:52:53.611Z,9.47
2019-02-16T05:55:14.353Z,11.13
2019-02-16T05:57:43.140Z,11.93
2019-02-16T06:00:13.323Z,10.40
2019-02-16T06:02:42.009Z,11.77
2019-02-16T06:05:10.790Z,16.97
2019-02-16T06:07:39.502Z,10.63
2019-02-16T06:10:08.445Z,9.90
2019-02-16T06:12:37.134Z,9.60
2019-02-16T06:15:07.051Z,12.00
2019-02-16T06:17:35.775Z,13.83
2019-02-16T06:20:04.759Z,19.37
2019-02-16T06:22:33.504Z,10.07
2019-02-16T06:25:02.213Z,10.17
2019-02-16T06:27:30.937Z,12.00
2019-02-16T06:29:59.687Z,8.87
2019-02-16T06:32:28.470Z,11.10
2019-02-16T06:35:05.668Z,10.77
2019-02-16T06:37:34.402Z,9.13
2019-02-16T06:40:03.190Z,12.97
2019-02-16T06:42:31.953Z,11.50
2019-02-16T06:45:00.674Z,8.73
2019-02-16T06:47:29.462Z,12.13
2019-02-16T06:49:58.201Z,15.60
2019-02-16T06:52:26.997Z,12.67
2019-02-16T06:54:55.742Z,8.93
2019-02-16T06:57:26.929Z,13.27
2019-02-16T06:59:55.675Z,10.47
2019-02-16T07:02:25.383Z,14.30
2019-02-16T07:04:54.150Z,11.47
2019-02-16T07:07:22.929Z,12.40
2019-02-16T07:09:51.738Z,11.77
2019-02-16T07:12:20.537Z,9.27
2019-02-16T07:14:49.242Z,14.07
2019-02-16T07:17:36.151Z,11.00
2019-02-16T07:20:07.877Z,12.77
2019-02-16T07:22:36.942Z,13.53
2019-02-16T07:25:06.265Z,10.60
2019-02-16T07:27:37.391Z,15.17
2019-02-16T07:30:07.766Z,12.63
2019-02-16T07:32:36.514Z,14.07
2019-02-16T07:35:07.343Z,13.87
2019-02-16T07:37:36.063Z,11.07
2019-02-16T07:40:05.009Z,11.30
2019-02-16T07:42:51.290Z,12.73
2019-02-16T07:45:38.887Z,12.17
2019-02-16T07:48:15.396Z,13.17
2019-02-16T07:50:48.901Z,11.17
2019-02-16T07:53:41.618Z,11.53
2019-02-16T07:56:18.358Z,11.60
2019-02-16T07:58:55.170Z,12.77
2019-02-16T08:01:29.189Z,12.23
2019-02-16T08:04:16.054Z,11.87
2019-02-16T08:07:13.070Z,11.43
2019-02-16T08:09:57.266Z,12.53
2019-02-16T08:12:39.017Z,13.43
2019-02-16T08:15:33.110Z,11.53
2019-02-16T08:18:26.853Z,12.43
2019-02-16T08:21:24.017Z,10.87
2019-02-16T08:24:20.888Z,12.57
2019-02-16T08:27:05.621Z,12.83
2019-02-16T08:29:56.317Z,14.33
2019-02-16T08:32:43.289Z,16.43
2019-02-16T08:35:29.017Z,14.87
2019-02-16T08:38:19.942Z,12.43
2019-02-16T08:41:01.104Z,13.70
2019-02-16T08:43:46.870Z,12.90
2019-02-16T08:46:27.040Z,13.00
2019-02-16T08:49:13.842Z,14.63
2019-02-16T08:51:55.138Z,12.30
2019-02-16T08:54:29.557Z,13.57
2019-02-16T08:57:27.309Z,17.20
2019-02-16T09:00:30.592Z,13.63
2019-02-16T09:03:17.006Z,15.97
2019-02-16T09:06:14.283Z,14.90
2019-02-16T09:09:00.892Z,12.60
2019-02-16T09:11:41.021Z,15.87
2019-02-16T09:14:17.557Z,17.17
2019-02-16T09:17:00.528Z,15.23
2019-02-16T09:19:38.217Z,17.20
2019-02-16T09:22:24.934Z,15.60
2019-02-16T09:24:58.894Z,16.67
2019-02-16T09:27:41.741Z,17.67
2019-02-16T09:30:21.102Z,19.13
2019-02-16T09:33:00.740Z,16.03
2019-02-16T09:35:37.842Z,15.57
2019-02-16T09:38:13.391Z,15.63
2019-02-16T09:40:56.185Z,15.03
2019-02-16T09:43:43.017Z,17.80
2019-02-16T09:46:27.159Z,15.87
2019-02-16T09:49:24.285Z,20.47
2019-02-16T09:52:10.815Z,19.30
2019-02-16T09:54:57.477Z,19.70
2019-02-16T09:57:45.330Z,17.17
2019-02-16T10:00:33.253Z,16.77
2019-02-16T10:03:21.434Z,15.50
2019-02-16T10:06:01.061Z,16.47
2019-02-16T10:08:56.758Z,15.20
2019-02-16T10:11:49.511Z,21.53
2019-02-16T10:14:24.381Z,17.87
2019-02-16T10:17:07.093Z,17.90
2019-02-16T10:19:48.886Z,15.40
2019-02-16T10:22:23.106Z,17.30
2019-02-16T10:25:13.869Z,16.33
2019-02-16T10:28:10.786Z,16.83
2019-02-16T10:30:48.449Z,21.03
2019-02-16T10:33:35.655Z,18.63
2019-02-16T10:36:20.133Z,17.33
2019-02-16T10:39:17.146Z,16.23
2019-02-16T10:42:12.282Z,17.63
2019-02-16T10:44:58.869Z,20.87
2019-02-16T10:47:45.642Z,17.37
2019-02-16T10:50:24.209Z,15.70
2019-02-16T10:53:14.981Z,17.13
2019-02-16T10:56:05.702Z,16.57
2019-02-16T10:59:05.702Z,17.40
2019-02-16T11:02:02.673Z,19.57
2019-02-16T11:04:45.000Z,17.73
2019-02-16T11:07:36.083Z,18.27
2019-02-16T11:10:23.169Z,18.53
2019-02-16T11:13:01.322Z,19.00
2019-02-16T11:15:48.878Z,17.53
2019-02-16T11:18:35.516Z,18.97
2019-02-16T11:21:21.976Z,18.37
2019-02-16T11:24:01.295Z,20.07
2019-02-16T11:26:41.598Z,20.33
2019-02-16T11:29:28.354Z,17.30
2019-02-16T11:32:22.311Z,16.93
2019-02-16T11:35:13.236Z,18.90
2019-02-16T11:37:48.356Z,21.00
2019-02-16T11:40:48.545Z,14.53
2019-02-16T11:43:36.413Z,19.57
2019-02-16T11:46:23.005Z,16.03
2019-02-16T11:49:16.654Z,20.23
2019-02-16T11:52:03.498Z,19.13
2019-02-16T11:54:45.404Z,18.33
2019-02-16T11:57:31.861Z,20.93
2019-02-16T12:00:28.621Z,18.73
2019-02-16T12:03:16.471Z,18.77
2019-02-16T12:05:57.859Z,16.63
2019-02-16T12:08:44.282Z,18.63
2019-02-16T12:11:41.311Z,18.43
2019-02-16T12:14:47.660Z,18.00
2019-02-16T12:17:34.222Z,22.20
2019-02-16T12:20:33.670Z,21.77
2019-02-16T12:23:15.499Z,19.37
2019-02-16T12:26:06.546Z,19.00
2019-02-16T12:28:53.198Z,18.10
2019-02-16T12:31:35.297Z,18.70
2019-02-16T12:34:09.643Z,18.23
2019-02-16T12:36:46.358Z,20.23
2019-02-16T12:39:29.765Z,18.83
2019-02-16T12:42:16.675Z,19.63
2019-02-16T12:44:55.296Z,18.63
2019-02-16T12:47:52.151Z,21.40
2019-02-16T12:50:38.223Z,20.57
2019-02-16T12:53:14.126Z,18.97
2019-02-16T12:55:51.166Z,19.40
2019-02-16T12:58:42.172Z,19.97
2019-02-16T13:01:25.063Z,18.83
2019-02-16T13:04:15.097Z,20.90
2019-02-16T13:07:01.845Z,21.13
2019-02-16T13:09:42.317Z,22.67
2019-02-16T13:12:39.402Z,21.63
2019-02-16T13:15:27.744Z,18.43
2019-02-16T13:18:07.086Z,18.10
2019-02-16T13:20:45.766Z,22.40
2019-02-16T13:23:33.736Z,21.70
2019-02-16T13:26:09.111Z,20.37
2019-02-16T13:28:48.511Z,19.33
2019-02-16T13:31:57.963Z,20.83
2019-02-16T13:34:33.382Z,19.27
2019-02-16T13:37:11.457Z,23.30
2019-02-16T13:40:02.309Z,20.50
2019-02-16T13:43:08.293Z,18.57
2019-02-16T13:45:54.609Z,23.47
2019-02-16T13:48:42.453Z,19.97
2019-02-16T13:51:17.415Z,20.73
2019-02-16T13:54:04.269Z,20.37
2019-02-16T13:56:58.711Z,20.73
2019-02-16T13:59:45.154Z,22.97
2019-02-16T14:02:31.914Z,20.90
2019-02-16T14:05:22.637Z,19.67
2019-02-16T14:07:59.501Z,18.63
2019-02-16T14:10:38.197Z,25.93
2019-02-16T14:13:26.185Z,20.47
2019-02-16T14:16:00.526Z,23.03
2019-02-16T14:18:29.283Z,20.63
2019-02-16T14:20:58.044Z,20.47
2019-02-16T14:23:28.453Z,19.03
2019-02-16T14:25:57.409Z,19.67
2019-02-16T14:28:26.149Z,23.20
2019-02-16T14:30:54.900Z,17.47
2019-02-16T14:33:23.627Z,18.90
2019-02-16T14:35:52.364Z,18.43
2019-02-16T14:38:34.782Z,18.17
2019-02-16T14:41:03.686Z,20.77
2019-02-16T14:43:33.753Z,19.03
2019-02-16T14:46:02.683Z,20.10
2019-02-16T14:48:31.397Z,18.98
2019-02-16T14:51:00.113Z,20.17
2019-02-16T14:53:28.919Z,18.93
2019-02-16T14:55:57.648Z,20.07
2019-02-16T14:58:26.373Z,21.57
2019-02-16T15:00:56.922Z,21.57
2019-02-16T15:03:25.565Z,23.60
2019-02-16T15:05:54.486Z,17.60
2019-02-16T15:08:23.197Z,17.77
2019-02-16T15:10:52.037Z,21.23
2019-02-16T15:13:20.793Z,21.43
2019-02-16T15:15:49.517Z,20.67
2019-02-16T15:18:19.141Z,21.03
2019-02-16T15:20:47.861Z,20.53
2019-02-16T15:23:16.689Z,21.37
2019-02-16T15:25:45.506Z,21.93
2019-02-16T15:28:14.332Z,20.83
2019-02-16T15:30:43.081Z,19.47
2019-02-16T15:33:11.878Z,19.73
2019-02-16T15:35:40.593Z,19.30
2019-02-16T15:38:09.333Z,21.20
2019-02-16T15:40:38.093Z,21.53
2019-02-16T15:43:06.953Z,20.00
2019-02-16T15:45:35.742Z,18.57
2019-02-16T15:48:04.490Z,21.70
2019-02-16T15:50:33.224Z,15.77
2019-02-16T15:53:01.977Z,18.20
2019-02-16T15:55:30.705Z,18.17
2019-02-16T15:57:59.461Z,20.40
2019-02-16T16:00:28.736Z,19.03
2019-02-16T16:02:59.541Z,20.33
2019-02-16T16:05:27.981Z,20.67
2019-02-16T16:08:18.257Z,22.40
2019-02-16T16:11:06.793Z,22.33
2019-02-16T16:13:53.364Z,18.37
2019-02-16T16:16:32.326Z,20.50
2019-02-16T16:19:11.929Z,22.80
2019-02-16T16:22:03.002Z,26.97
2019-02-16T16:24:41.079Z,20.57
2019-02-16T16:27:19.798Z,19.73
2019-02-16T16:30:05.004Z,21.83
2019-02-16T16:32:56.040Z,19.47
2019-02-16T16:35:42.618Z,21.73
2019-02-16T16:38:22.102Z,21.17
2019-02-16T16:41:13.488Z,18.20
2019-02-16T16:44:10.642Z,24.47
2019-02-16T16:47:07.776Z,20.00
2019-02-16T16:49:55.230Z,19.30
2019-02-16T16:52:52.354Z,22.77
2019-02-16T16:55:49.113Z,22.87
2019-02-16T16:58:42.019Z,21.67
2019-02-16T17:01:44.050Z,25.13
2019-02-16T17:04:22.411Z,22.87
2019-02-16T17:07:16.191Z,17.97
2019-02-16T17:10:00.933Z,22.10
2019-02-16T17:12:56.826Z,24.87
2019-02-16T17:15:43.685Z,23.40
2019-02-16T17:18:22.274Z,22.90
2019-02-16T17:21:09.093Z,24.30
2019-02-16T17:23:48.874Z,22.20
2019-02-16T17:26:50.845Z,23.23
2019-02-16T17:29:44.797Z,26.10
2019-02-16T17:32:22.401Z,27.63
2019-02-16T17:35:25.649Z,27.83
2019-02-16T17:38:16.057Z,25.17
2019-02-16T17:41:08.497Z,25.03
2019-02-16T17:44:02.181Z,23.00
2019-02-16T17:46:40.405Z,27.23
2019-02-16T17:49:17.483Z,25.57
2019-02-16T17:52:14.636Z,23.33
2019-02-16T17:54:59.218Z,22.50
2019-02-16T17:57:32.486Z,23.10
2019-02-16T18:00:20.431Z,22.73
2019-02-16T18:03:05.583Z,26.60
2019-02-16T18:05:43.203Z,20.63
2019-02-16T18:08:21.501Z,22.07
2019-02-16T18:11:08.088Z,23.77
2019-02-16T18:13:54.853Z,22.23
2019-02-16T18:16:34.397Z,24.97
2019-02-16T18:19:21.565Z,23.80
2019-02-16T18:22:08.145Z,27.63
2019-02-16T18:25:08.326Z,28.33
2019-02-16T18:27:45.295Z,23.80
2019-02-16T18:30:22.170Z,26.00
2019-02-16T18:33:10.009Z,25.07
2019-02-16T18:35:56.860Z,26.63
2019-02-16T18:38:47.609Z,30.83
2019-02-16T18:41:34.143Z,34.60
2019-02-16T18:44:34.139Z,28.33
2019-02-16T18:47:22.063Z,30.57
2019-02-16T18:50:05.157Z,23.93
2019-02-16T18:52:48.090Z,27.53
2019-02-16T18:55:39.018Z,24.60
2019-02-16T18:58:41.871Z,24.50
2019-02-16T19:01:20.664Z,25.53
2019-02-16T19:04:08.469Z,28.30
2019-02-16T19:06:45.092Z,28.80
2019-02-16T19:09:29.823Z,28.20
2019-02-16T19:12:05.795Z,24.13
2019-02-16T19:14:50.951Z,28.80
2019-02-16T19:17:44.695Z,25.47
2019-02-16T19:20:40.652Z,22.20
2019-02-16T19:23:34.315Z,31.23
2019-02-16T19:26:40.496Z,33.70
2019-02-16T19:29:27.433Z,29.97
2019-02-16T19:32:09.714Z,27.93
2019-02-16T19:35:06.461Z,24.27
2019-02-16T19:37:47.439Z,28.97
2019-02-16T19:40:34.201Z,26.97
2019-02-16T19:43:28.245Z,24.47
2019-02-16T19:46:16.573Z,28.60
2019-02-16T19:49:05.037Z,24.23
2019-02-16T19:51:50.614Z,23.37
2019-02-16T19:54:37.509Z,37.23
2019-02-16T19:57:30.021Z,23.43
2019-02-16T20:00:17.665Z,26.57
2019-02-16T20:02:55.758Z,22.57
2019-02-16T20:05:36.490Z,28.90
2019-02-16T20:08:27.761Z,25.20
2019-02-16T20:11:13.077Z,23.73
2019-02-16T20:14:04.493Z,25.67
2019-02-16T20:16:51.328Z,25.57
2019-02-16T20:19:40.933Z,28.17
2019-02-16T20:22:23.673Z,25.00
2019-02-16T20:25:10.710Z,28.20
2019-02-16T20:27:52.073Z,26.60
2019-02-16T20:30:30.093Z,25.60
2019-02-16T20:33:21.267Z,26.20
2019-02-16T20:36:00.265Z,24.67
2019-02-16T20:38:47.060Z,24.83
2019-02-16T20:41:37.984Z,22.07
2019-02-16T20:44:15.539Z,23.27
2019-02-16T20:46:50.586Z,24.03
2019-02-16T20:49:47.503Z,27.90
2019-02-16T20:52:35.387Z,23.10
2019-02-16T20:55:12.542Z,27.07
2019-02-16T20:58:07.376Z,29.17
2019-02-16T21:00:54.186Z,26.10
2019-02-16T21:03:38.410Z,21.23
2019-02-16T21:06:26.497Z,21.90
2019-02-16T21:09:26.437Z,25.90
2019-02-16T21:12:00.278Z,22.80
2019-02-16T21:14:53.545Z,23.60
2019-02-16T21:17:53.373Z,24.80
2019-02-16T21:20:41.210Z,21.97
2019-02-16T21:23:27.921Z,24.97
2019-02-16T21:26:16.159Z,22.60
2019-02-16T21:28:54.325Z,21.50
2019-02-16T21:31:38.173Z,24.77
2019-02-16T21:34:17.102Z,26.53
2019-02-16T21:37:04.025Z,20.07
2019-02-16T21:39:39.050Z,28.27
2019-02-16T21:42:36.182Z,26.77
2019-02-16T21:45:17.398Z,28.10
2019-02-16T21:48:08.309Z,28.43
2019-02-16T21:50:55.052Z,27.40
2019-02-16T21:53:42.874Z,27.40
2019-02-16T21:56:33.703Z,27.20
2019-02-16T21:59:31.582Z,34.93
2019-02-16T22:02:20.009Z,33.80
2019-02-16T22:04:57.578Z,38.53
2019-02-16T22:08:03.585Z,37.93
2019-02-16T22:10:47.112Z,33.10
2019-02-16T22:13:15.830Z,26.07
2019-02-16T22:15:44.550Z,25.67
2019-02-16T22:18:13.302Z,22.03
2019-02-16T22:20:42.040Z,21.50
2019-02-16T22:23:10.750Z,26.27
2019-02-16T22:25:39.482Z,37.07
2019-02-16T22:28:17.863Z,36.30
2019-02-16T22:30:39.225Z,39.17
2019-02-16T22:33:08.061Z,38.10
2019-02-16T22:35:36.790Z,34.30
2019-02-16T22:38:05.584Z,33.47
2019-02-16T22:40:34.317Z,31.53
2019-02-16T22:43:03.065Z,33.33
2019-02-16T22:45:31.857Z,34.43
2019-02-16T22:48:01.399Z,34.37
2019-02-16T22:50:30.266Z,33.93
2019-02-16T22:52:59.101Z,26.53
2019-02-16T22:55:27.935Z,27.67
2019-02-16T22:57:56.637Z,20.47
2019-02-16T23:00:48.081Z,21.77
2019-02-16T23:03:17.038Z,23.47
2019-02-16T23:05:45.884Z,25.37
2019-02-16T23:08:14.772Z,27.53
2019-02-16T23:10:43.569Z,28.37
2019-02-16T23:13:12.557Z,25.87
2019-02-16T23:15:41.329Z,24.63
2019-02-16T23:18:10.065Z,24.37
2019-02-16T23:20:38.858Z,24.13
2019-02-16T23:23:07.681Z,21.20
2019-02-16T23:25:36.493Z,22.77
2019-02-16T23:28:05.274Z,20.17
2019-02-16T23:30:34.478Z,20.80
2019-02-16T23:33:03.520Z,22.23
2019-02-16T23:35:32.294Z,20.63
2019-02-16T23:38:01.073Z,17.87
2019-02-16T23:40:33.173Z,19.93
2019-02-16T23:43:02.750Z,18.70
2019-02-16T23:45:31.766Z,21.17
2019-02-16T23:48:00.492Z,21.23
2019-02-16T23:50:29.288Z,19.53
2019-02-16T23:52:58.202Z,22.90
2019-02-16T23:55:26.916Z,24.13
2019-02-16T23:57:55.626Z,21.33
